Loughrea, Ireland
Current Conditions -  °F | °C
As of 11:30 AM on Friday 24 Oct 2014 (Local Time) from EINN Reporting Station
Light Rain Light Rain  
Wind Chill: 52°   Ceiling: 5000
Heat Index: 52°   Visibility: 6mi
Dew Point: 45°   Wind: 18mph
Humidity: 76%   Direction: 230°SW
Pressure: 29.88"   Gusts: NA
Location:  53.2°N, 8.57°W
Report Text: EINN 241130Z 23016KT 9999 -RA FEW018 SCT034 BKN050 11/07 Q1012 NOSIG
Loading
Personal Weather Stations






























Interactive Weather Map New forecast layout! Learn more

10-Day Weather Forecast

Advertisements
Track Severe Weather on mobile